Aviation Digital Data Service (ADDS)

Output produced by TAFs form (2355 UTC 18 February 2018)
found at http://www.aviationweather.gov/adds/tafs/
 
METAR text: RJBE 182300Z 04004KT 9999 FEW045 SCT170 OVC/// 03/M04 Q1023
Conditions at: RJBE (KOBE , JP) observed 2300 UTC 18 February 2018
Temperature: 3.0°C (37°F)
Dewpoint: -4.0°C (25°F) [RH = 60%]
Pressure (altimeter): 30.21 inches Hg (1023.0 mb)
Winds: from the NE (40 degrees) at 5 MPH (4 knots; 2.1 m/s)
Visibility: 6 or more miles (10+ km)
Ceiling: at least 12,000 feet AGL
Clouds: few clouds at 4500 feet AGL
scattered clouds at 17000 feet AGL
Weather: no significant weather observed at this time